Time,TemperatureF,DewpointF,PressureIn,WindDirection,WindDirectionDegrees,WindSpeedMPH,WindSpeedGustMPH,Humidity,HourlyPrecipIn,Conditions,Clouds,dailyrainin,SolarRadiationWatts/m^2,SoftwareType,DateUTC
2013-05-18 00:02:00,39.0,38.0,-100.00,SW,217,4.0,9.0,98,0.00,,,0.23,0.000000,,2013-05-18 06:02:00,
2013-05-18 00:32:00,38.0,38.0,-100.00,SW,214,4.0,7.0,99,0.00,,,0.23,0.000000,,2013-05-18 06:32:00,
2013-05-18 00:42:00,38.0,38.0,-100.00,SW,214,4.0,7.0,99,0.00,,,0.23,0.000000,,2013-05-18 06:42:00,
2013-05-18 00:52:00,38.0,38.0,-100.00,SW,214,4.0,7.0,99,0.00,,,0.23,0.000000,,2013-05-18 06:52:00,
2013-05-18 01:01:00,38.0,38.0,-100.00,SW,214,4.0,7.0,99,0.00,,,0.23,0.000000,,2013-05-18 07:01:00,
2013-05-18 01:32:00,38.0,38.0,-100.00,WSW,238,2.0,5.0,99,0.00,,,0.23,0.000000,,2013-05-18 07:32:00,
2013-05-18 01:43:00,38.0,38.0,-100.00,WSW,238,2.0,5.0,99,0.00,,,0.23,0.000000,,2013-05-18 07:43:00,
2013-05-18 01:52:00,38.0,38.0,-100.00,WSW,238,2.0,5.0,99,0.00,,,0.23,0.000000,,2013-05-18 07:52:00,
2013-05-18 02:01:00,38.0,38.0,-100.00,WSW,238,2.0,5.0,99,0.00,,,0.23,0.000000,,2013-05-18 08:01:00,
2013-05-18 02:32:00,38.0,38.0,-100.00,SW,234,4.0,5.0,99,0.00,,,0.23,0.000000,,2013-05-18 08:32:00,
2013-05-18 02:42:00,38.0,38.0,-100.00,SW,234,4.0,5.0,99,0.00,,,0.23,0.000000,,2013-05-18 08:42:00,
2013-05-18 02:52:00,38.0,38.0,-100.00,SW,234,4.0,5.0,99,0.00,,,0.23,0.000000,,2013-05-18 08:52:00,
2013-05-18 03:02:00,38.0,38.0,-100.00,SW,234,4.0,5.0,99,0.00,,,0.23,0.000000,,2013-05-18 09:02:00,
2013-05-18 03:33:00,38.0,38.0,-100.00,SW,233,2.0,5.0,100,0.00,,,0.23,0.000000,,2013-05-18 09:33:00,
2013-05-18 03:43:00,38.0,38.0,-100.00,SW,233,2.0,5.0,100,0.00,,,0.23,0.000000,,2013-05-18 09:43:00,
2013-05-18 03:53:00,38.0,38.0,-100.00,SW,233,2.0,5.0,100,0.00,,,0.23,0.000000,,2013-05-18 09:53:00,
2013-05-18 04:02:00,38.0,38.0,-100.00,SW,233,2.0,5.0,100,0.00,,,0.23,0.000000,,2013-05-18 10:02:00,
2013-05-18 04:33:00,38.0,38.0,-100.00,South,187,3.0,7.0,100,0.00,,,-99.99,0.000000,,2013-05-18 10:33:00,
2013-05-18 04:42:00,38.0,38.0,-100.00,South,187,3.0,7.0,100,0.00,,,-99.99,0.000000,,2013-05-18 10:42:00,
2013-05-18 04:52:00,38.0,38.0,-100.00,South,187,3.0,7.0,100,0.00,,,-99.99,0.000000,,2013-05-18 10:52:00,
2013-05-18 05:02:00,38.0,38.0,-100.00,South,187,3.0,7.0,100,0.00,,,-99.99,0.000000,,2013-05-18 11:02:00,
2013-05-18 05:33:00,37.0,37.0,-100.00,WSW,241,2.0,6.0,100,0.00,,,-99.99,0.000000,,2013-05-18 11:33:00,
2013-05-18 05:42:00,37.0,37.0,-100.00,WSW,241,2.0,6.0,100,0.00,,,-99.99,0.000000,,2013-05-18 11:42:00,
2013-05-18 05:52:00,37.0,37.0,-100.00,WSW,241,2.0,6.0,100,0.00,,,-99.99,0.000000,,2013-05-18 11:52:00,
2013-05-18 06:01:00,37.0,37.0,-100.00,WSW,241,2.0,6.0,100,0.00,,,-99.99,0.000000,,2013-05-18 12:01:00,
2013-05-18 06:33:00,37.0,37.0,-100.00,NNW,343,2.0,4.0,100,0.00,,,0.23,0.000000,,2013-05-18 12:33:00,
2013-05-18 06:42:00,37.0,37.0,-100.00,NNW,343,2.0,4.0,100,0.00,,,0.23,0.000000,,2013-05-18 12:42:00,
2013-05-18 06:52:00,37.0,37.0,-100.00,NNW,343,2.0,4.0,100,0.00,,,0.23,0.000000,,2013-05-18 12:52:00,
2013-05-18 07:01:00,37.0,37.0,-100.00,NNW,343,2.0,4.0,100,0.00,,,0.23,0.000000,,2013-05-18 13:01:00,
2013-05-18 07:33:00,38.0,38.0,-100.00,WSW,241,3.0,5.0,100,0.00,,,-99.99,25.000000,,2013-05-18 13:33:00,
2013-05-18 07:43:00,38.0,38.0,-100.00,WSW,241,3.0,5.0,100,0.00,,,-99.99,25.000000,,2013-05-18 13:43:00,
2013-05-18 07:52:00,38.0,38.0,-100.00,WSW,241,3.0,5.0,100,0.00,,,-99.99,25.000000,,2013-05-18 13:52:00,
2013-05-18 08:03:00,38.0,38.0,-100.00,WSW,241,3.0,5.0,100,0.00,,,-99.99,25.000000,,2013-05-18 14:03:00,
2013-05-18 08:33:00,38.0,38.0,-100.00,SW,217,3.0,6.0,100,0.00,,,0.20,65.000000,,2013-05-18 14:33:00,
2013-05-18 08:42:00,38.0,38.0,-100.00,SW,217,3.0,6.0,100,0.00,,,0.20,65.000000,,2013-05-18 14:42:00,
2013-05-18 08:54:00,38.0,38.0,-100.00,SW,217,3.0,6.0,100,0.00,,,0.20,65.000000,,2013-05-18 14:54:00,
2013-05-18 09:03:00,38.0,38.0,-100.00,SW,217,3.0,6.0,100,0.00,,,0.20,65.000000,,2013-05-18 15:03:00,
2013-05-18 09:33:00,39.0,39.0,-100.00,SW,234,3.0,6.0,99,0.00,,,0.16,112.000000,,2013-05-18 15:33:00,
2013-05-18 09:43:00,39.0,39.0,-100.00,SW,234,3.0,6.0,99,0.00,,,0.16,112.000000,,2013-05-18 15:43:00,
2013-05-18 09:53:00,39.0,39.0,-100.00,SW,234,3.0,6.0,99,0.00,,,0.16,112.000000,,2013-05-18 15:53:00,
2013-05-18 10:02:00,39.0,39.0,-100.00,SW,234,3.0,6.0,99,0.00,,,0.16,112.000000,,2013-05-18 16:02:00,
2013-05-18 10:33:00,42.0,39.0,-100.00,South,173,3.0,9.0,89,0.00,,,0.14,191.000000,,2013-05-18 16:33:00,
2013-05-18 10:42:00,42.0,39.0,-100.00,South,173,3.0,9.0,89,0.00,,,0.14,191.000000,,2013-05-18 16:42:00,
2013-05-18 10:52:00,42.0,39.0,-100.00,South,173,3.0,9.0,89,0.00,,,0.14,191.000000,,2013-05-18 16:52:00,
2013-05-18 11:02:00,42.0,39.0,-100.00,South,173,3.0,9.0,89,0.00,,,0.14,191.000000,,2013-05-18 17:02:00,
2013-05-18 11:33:00,42.0,38.0,-100.00,SSW,213,9.0,13.0,85,0.00,,,0.05,239.000000,,2013-05-18 17:33:00,
2013-05-18 11:42:00,42.0,38.0,-100.00,SSW,213,9.0,13.0,85,0.00,,,0.05,239.000000,,2013-05-18 17:42:00,
2013-05-18 11:52:00,42.0,38.0,-100.00,SSW,213,9.0,13.0,85,0.00,,,0.05,239.000000,,2013-05-18 17:52:00,
2013-05-18 12:01:00,42.0,38.0,-100.00,SSW,213,9.0,13.0,85,0.00,,,0.05,239.000000,,2013-05-18 18:01:00,
2013-05-18 12:32:00,42.0,38.0,-100.00,SSW,208,8.0,14.0,86,0.06,,,0.07,320.000000,,2013-05-18 18:32:00,
2013-05-18 12:42:00,42.0,38.0,-100.00,SSW,208,8.0,14.0,86,0.06,,,0.07,320.000000,,2013-05-18 18:42:00,
2013-05-18 12:52:00,42.0,38.0,-100.00,SSW,208,8.0,14.0,86,0.06,,,0.07,320.000000,,2013-05-18 18:52:00,
2013-05-18 13:02:00,42.0,38.0,-100.00,SSW,208,8.0,14.0,86,0.06,,,0.07,320.000000,,2013-05-18 19:02:00,
2013-05-18 13:32:00,41.0,38.0,-100.00,SSW,213,7.0,11.0,90,0.17,,,0.23,115.000000,,2013-05-18 19:32:00,
2013-05-18 13:42:00,41.0,38.0,-100.00,SSW,213,7.0,11.0,90,0.17,,,0.23,115.000000,,2013-05-18 19:42:00,
2013-05-18 13:52:00,41.0,38.0,-100.00,SSW,213,7.0,11.0,90,0.17,,,0.23,115.000000,,2013-05-18 19:52:00,
2013-05-18 14:01:00,41.0,38.0,-100.00,SSW,213,7.0,11.0,90,0.17,,,0.23,115.000000,,2013-05-18 20:01:00,
2013-05-18 14:32:00,43.0,42.0,-100.00,SW,231,4.0,12.0,96,0.06,,,0.29,255.000000,,2013-05-18 20:32:00,
2013-05-18 14:42:00,43.0,42.0,-100.00,SW,231,4.0,12.0,96,0.06,,,0.29,255.000000,,2013-05-18 20:42:00,
2013-05-18 14:52:00,43.0,42.0,-100.00,SW,231,4.0,12.0,96,0.06,,,0.29,255.000000,,2013-05-18 20:52:00,
2013-05-18 15:01:00,43.0,42.0,-100.00,SW,231,4.0,12.0,96,0.06,,,0.29,255.000000,,2013-05-18 21:01:00,
2013-05-18 15:33:00,39.0,38.0,-100.00,SSE,163,4.0,13.0,97,0.08,,,0.37,76.000000,,2013-05-18 21:33:00,
2013-05-18 15:43:00,39.0,38.0,-100.00,SSE,163,4.0,13.0,97,0.08,,,0.37,76.000000,,2013-05-18 21:43:00,
2013-05-18 15:53:00,39.0,38.0,-100.00,SSE,163,4.0,13.0,97,0.08,,,0.37,76.000000,,2013-05-18 21:53:00,
2013-05-18 16:03:00,39.0,38.0,-100.00,SSE,163,4.0,13.0,97,0.08,,,0.37,76.000000,,2013-05-18 22:03:00,
2013-05-18 16:33:00,42.0,38.0,-100.00,South,170,4.0,7.0,86,0.00,,,0.37,256.000000,,2013-05-18 22:33:00,
2013-05-18 16:42:00,42.0,38.0,-100.00,South,170,4.0,7.0,86,0.00,,,0.37,256.000000,,2013-05-18 22:42:00,
2013-05-18 16:52:00,42.0,38.0,-100.00,South,170,4.0,7.0,86,0.00,,,0.37,256.000000,,2013-05-18 22:52:00,
2013-05-18 17:01:00,42.0,38.0,-100.00,South,170,4.0,7.0,86,0.00,,,0.37,256.000000,,2013-05-18 23:01:00,
2013-05-18 17:32:00,44.0,38.0,-100.00,South,190,5.0,7.0,80,0.00,,,0.37,357.000000,,2013-05-18 23:32:00,
2013-05-18 17:42:00,44.0,38.0,-100.00,South,190,5.0,7.0,80,0.00,,,0.37,357.000000,,2013-05-18 23:42:00,
2013-05-18 17:53:00,44.0,38.0,-100.00,South,190,5.0,7.0,80,0.00,,,0.37,357.000000,,2013-05-18 23:53:00,
2013-05-18 18:01:00,44.0,38.0,-100.00,South,190,5.0,7.0,80,0.00,,,0.37,357.000000,,2013-05-19 00:01:00,
2013-05-18 19:32:00,46.0,40.0,-100.00,North,358,7.0,10.0,79,-99.99,,,0.40,272.000000,,2013-05-19 01:32:00,
2013-05-18 19:42:00,46.0,40.0,-100.00,North,358,7.0,10.0,79,-99.99,,,0.40,272.000000,,2013-05-19 01:42:00,
2013-05-18 19:52:00,46.0,40.0,-100.00,North,358,7.0,10.0,79,-99.99,,,0.40,272.000000,,2013-05-19 01:52:00,
2013-05-18 20:01:00,46.0,40.0,-100.00,North,358,7.0,10.0,79,-99.99,,,0.40,272.000000,,2013-05-19 02:01:00,
2013-05-18 20:32:00,44.0,36.0,-100.00,NW,320,10.0,17.0,74,0.00,,,0.40,304.000000,,2013-05-19 02:32:00,
2013-05-18 20:42:00,44.0,36.0,-100.00,NW,320,10.0,17.0,74,0.00,,,0.40,304.000000,,2013-05-19 02:42:00,
2013-05-18 20:52:00,44.0,36.0,-100.00,NW,320,10.0,17.0,74,0.00,,,0.40,304.000000,,2013-05-19 02:52:00,
2013-05-18 21:01:00,44.0,36.0,-100.00,NW,320,10.0,17.0,74,0.00,,,0.40,304.000000,,2013-05-19 03:01:00,
2013-05-18 21:33:00,40.0,33.0,-100.00,WNW,282,10.0,16.0,76,0.00,,,0.40,55.000000,,2013-05-19 03:33:00,
2013-05-18 21:43:00,40.0,33.0,-100.00,WNW,282,10.0,16.0,76,0.00,,,0.40,55.000000,,2013-05-19 03:43:00,
2013-05-18 21:53:00,40.0,33.0,-100.00,WNW,282,10.0,16.0,76,0.00,,,0.40,55.000000,,2013-05-19 03:53:00,
2013-05-18 22:02:00,40.0,33.0,-100.00,WNW,282,10.0,16.0,76,0.00,,,0.40,55.000000,,2013-05-19 04:02:00,
2013-05-18 22:33:00,39.0,32.0,-100.00,WNW,296,9.0,16.0,77,0.00,,,0.40,0.000000,,2013-05-19 04:33:00,
2013-05-18 22:42:00,39.0,32.0,-100.00,WNW,296,9.0,16.0,77,0.00,,,0.40,0.000000,,2013-05-19 04:42:00,
2013-05-18 22:52:00,39.0,32.0,-100.00,WNW,296,9.0,16.0,77,0.00,,,0.40,0.000000,,2013-05-19 04:52:00,
2013-05-18 23:02:00,39.0,32.0,-100.00,WNW,296,9.0,16.0,77,0.00,,,0.40,0.000000,,2013-05-19 05:02:00,
2013-05-18 23:32:00,38.0,33.0,-100.00,WNW,285,8.0,12.0,82,0.00,,,0.40,0.000000,,2013-05-19 05:32:00,
2013-05-18 23:42:00,38.0,33.0,-100.00,WNW,285,8.0,12.0,82,0.00,,,0.40,0.000000,,2013-05-19 05:42:00,
2013-05-18 23:52:00,38.0,33.0,-100.00,WNW,285,8.0,12.0,82,0.00,,,0.40,0.000000,,2013-05-19 05:52:00,